createdAt,value
2019-03-11T00:00:33.274Z,0
2019-03-11T00:01:43.388Z,0
2019-03-11T00:02:53.500Z,0
2019-03-11T00:04:03.558Z,0
2019-03-11T00:05:14.587Z,0
2019-03-11T00:06:24.703Z,0
2019-03-11T00:07:34.801Z,0
2019-03-11T00:08:44.897Z,0
2019-03-11T00:09:55.006Z,0
2019-03-11T00:11:05.161Z,0
2019-03-11T00:12:15.273Z,0
2019-03-11T00:13:25.385Z,0
2019-03-11T00:14:35.487Z,0
2019-03-11T00:15:45.592Z,0
2019-03-11T00:16:55.737Z,0
2019-03-11T00:18:05.849Z,0
2019-03-11T00:19:15.988Z,0
2019-03-11T00:20:26.126Z,0
2019-03-11T00:21:36.243Z,0
2019-03-11T00:22:46.360Z,0
2019-03-11T00:23:56.478Z,0
2019-03-11T00:25:06.595Z,0
2019-03-11T00:26:16.708Z,0
2019-03-11T00:27:26.835Z,0
2019-03-11T00:28:36.687Z,0
2019-03-11T00:29:49.159Z,0
2019-03-11T00:30:59.257Z,0
2019-03-11T00:32:09.379Z,0
2019-03-11T00:33:20.477Z,0
2019-03-11T00:34:30.582Z,0
2019-03-11T00:35:40.699Z,0
2019-03-11T00:36:50.790Z,0
2019-03-11T00:38:00.896Z,0
2019-03-11T00:39:11.001Z,0
2019-03-11T00:40:20.853Z,0
2019-03-11T00:41:30.997Z,0
2019-03-11T00:42:41.151Z,0
2019-03-11T00:43:51.268Z,0
2019-03-11T00:45:01.438Z,0
2019-03-11T00:46:11.638Z,0
2019-03-11T00:47:21.761Z,0
2019-03-11T00:48:31.875Z,0
2019-03-11T00:49:41.996Z,0
2019-03-11T00:50:52.099Z,0
2019-03-11T00:52:02.237Z,0
2019-03-11T00:53:12.347Z,0
2019-03-11T00:54:22.448Z,0
2019-03-11T00:55:32.550Z,0
2019-03-11T00:56:42.428Z,0
2019-03-11T00:57:52.520Z,0
2019-03-11T00:59:02.608Z,0
2019-03-11T01:00:12.705Z,0
2019-03-11T01:01:22.801Z,0
2019-03-11T01:02:32.914Z,0
2019-03-11T01:03:43.022Z,0
2019-03-11T01:04:53.130Z,0
2019-03-11T01:06:03.225Z,0
2019-03-11T01:07:13.324Z,0
2019-03-11T01:08:23.433Z,0
2019-03-11T01:09:33.549Z,0
2019-03-11T01:10:43.660Z,0
2019-03-11T01:11:53.760Z,0
2019-03-11T01:13:03.901Z,0
2019-03-11T01:14:14.014Z,0
2019-03-11T01:15:24.157Z,0
2019-03-11T01:16:34.328Z,0
2019-03-11T01:17:44.420Z,0
2019-03-11T01:18:54.518Z,0
2019-03-11T01:20:04.642Z,0
2019-03-11T01:21:14.742Z,0
2019-03-11T01:22:24.586Z,0
2019-03-11T01:23:34.708Z,0
2019-03-11T01:24:44.812Z,0
2019-03-11T01:25:54.917Z,0
2019-03-11T01:27:04.782Z,0
2019-03-11T01:28:14.893Z,0
2019-03-11T01:29:24.987Z,0
2019-03-11T01:30:35.089Z,0
2019-03-11T01:31:45.183Z,0
2019-03-11T01:32:55.351Z,0
2019-03-11T01:34:05.470Z,0
2019-03-11T01:35:15.623Z,0
2019-03-11T01:36:25.357Z,0
2019-03-11T01:37:35.454Z,0
2019-03-11T01:38:45.557Z,0
2019-03-11T01:39:55.397Z,0
2019-03-11T01:41:05.487Z,0
2019-03-11T01:42:15.583Z,0
2019-03-11T01:43:25.916Z,0
2019-03-11T01:44:36.008Z,0
2019-03-11T01:45:46.124Z,0
2019-03-11T01:46:56.236Z,0
2019-03-11T01:48:06.385Z,0
2019-03-11T01:49:16.532Z,0
2019-03-11T01:50:26.650Z,0
2019-03-11T01:51:36.752Z,0
2019-03-11T01:52:46.851Z,0
2019-03-11T01:53:56.978Z,0
2019-03-11T01:55:07.132Z,0
2019-03-11T01:56:17.221Z,0
2019-03-11T01:57:27.316Z,0
2019-03-11T01:58:37.418Z,0
2019-03-11T01:59:47.513Z,0
2019-03-11T02:00:57.603Z,0
2019-03-11T02:02:07.723Z,0
2019-03-11T02:03:17.829Z,0
2019-03-11T02:04:27.918Z,0
2019-03-11T02:05:38.038Z,0
2019-03-11T02:06:48.122Z,0
2019-03-11T02:07:58.206Z,0
2019-03-11T02:09:08.317Z,0
2019-03-11T02:10:18.415Z,0
2019-03-11T02:11:28.505Z,0
2019-03-11T02:12:38.607Z,0
2019-03-11T02:13:48.704Z,0
2019-03-11T02:14:58.864Z,0
2019-03-11T02:16:08.966Z,0
2019-03-11T02:17:19.059Z,0
2019-03-11T02:18:29.153Z,0
2019-03-11T02:19:39.268Z,0
2019-03-11T02:20:49.365Z,0
2019-03-11T02:21:59.469Z,0
2019-03-11T02:23:09.582Z,0
2019-03-11T02:24:19.689Z,0
2019-03-11T02:25:29.805Z,0
2019-03-11T02:26:39.937Z,0
2019-03-11T02:27:49.707Z,0
2019-03-11T02:28:59.824Z,0
2019-03-11T02:30:09.928Z,0
2019-03-11T02:31:20.033Z,0
2019-03-11T02:32:33.525Z,0
2019-03-11T02:33:43.639Z,0
2019-03-11T02:34:53.777Z,0
2019-03-11T02:36:03.872Z,0
2019-03-11T02:37:13.966Z,0
2019-03-11T02:38:24.065Z,0
2019-03-11T02:39:34.198Z,0
2019-03-11T02:40:44.322Z,0
2019-03-11T02:41:54.166Z,0
2019-03-11T02:43:04.446Z,0
2019-03-11T02:44:14.570Z,0
2019-03-11T02:45:24.671Z,0
2019-03-11T02:46:34.797Z,0
2019-03-11T02:47:44.950Z,0
2019-03-11T02:48:55.073Z,0
2019-03-11T02:50:05.203Z,0
2019-03-11T02:51:15.340Z,0
2019-03-11T02:52:25.486Z,0
2019-03-11T02:53:35.650Z,0
2019-03-11T02:54:45.799Z,0
2019-03-11T02:55:58.382Z,0
2019-03-11T02:57:08.489Z,0
2019-03-11T02:58:18.597Z,0
2019-03-11T02:59:28.512Z,0
2019-03-11T03:00:40.325Z,0
2019-03-11T03:01:50.457Z,0
2019-03-11T03:03:00.558Z,0
2019-03-11T03:04:10.748Z,0
2019-03-11T03:05:20.862Z,0
2019-03-11T03:06:30.985Z,0
2019-03-11T03:07:41.144Z,0
2019-03-11T03:08:51.305Z,0
2019-03-11T03:10:01.429Z,0
2019-03-11T03:11:11.589Z,0
2019-03-11T03:12:21.687Z,0
2019-03-11T03:13:31.817Z,0
2019-03-11T03:14:41.963Z,0
2019-03-11T03:15:52.079Z,0
2019-03-11T03:17:02.187Z,0
2019-03-11T03:18:12.295Z,0
2019-03-11T03:19:22.397Z,0
2019-03-11T03:20:32.508Z,0
2019-03-11T03:21:42.618Z,0
2019-03-11T03:22:52.807Z,0
2019-03-11T03:24:02.941Z,0
2019-03-11T03:25:13.159Z,0
2019-03-11T03:26:23.268Z,0
2019-03-11T03:27:33.572Z,0
2019-03-11T03:28:43.851Z,0
2019-03-11T03:29:53.988Z,0
2019-03-11T03:31:04.260Z,0
2019-03-11T03:32:14.476Z,0
2019-03-11T03:33:24.652Z,0
2019-03-11T03:34:34.828Z,0
2019-03-11T03:35:44.964Z,0
2019-03-11T03:36:55.107Z,0
2019-03-11T03:38:05.218Z,0
2019-03-11T03:39:15.341Z,0
2019-03-11T03:40:25.471Z,0
2019-03-11T03:41:35.594Z,0
2019-03-11T03:42:45.979Z,0
2019-03-11T03:43:56.196Z,0
2019-03-11T03:45:06.300Z,0
2019-03-11T03:46:26.277Z,0
2019-03-11T03:47:36.381Z,0
2019-03-11T03:48:47.347Z,0
2019-03-11T03:49:57.849Z,0
2019-03-11T03:51:08.197Z,0
2019-03-11T03:52:18.304Z,0
2019-03-11T03:53:28.434Z,0
2019-03-11T03:54:38.538Z,0
2019-03-11T03:55:48.684Z,0
2019-03-11T03:57:01.430Z,0
2019-03-11T03:58:11.665Z,0
2019-03-11T03:59:21.774Z,0
2019-03-11T04:00:31.896Z,0
2019-03-11T04:01:42.047Z,0
2019-03-11T04:02:52.159Z,0
2019-03-11T04:04:02.284Z,0
2019-03-11T04:05:12.398Z,0
2019-03-11T04:06:22.519Z,0
2019-03-11T04:07:32.628Z,0
2019-03-11T04:08:42.741Z,0
2019-03-11T04:09:52.637Z,0
2019-03-11T04:11:02.812Z,0
2019-03-11T04:12:12.925Z,0
2019-03-11T04:13:23.136Z,0
2019-03-11T04:14:33.244Z,0
2019-03-11T04:15:43.350Z,0
2019-03-11T04:16:53.460Z,0
2019-03-11T04:18:03.609Z,0
2019-03-11T04:19:13.722Z,0
2019-03-11T04:20:23.873Z,0
2019-03-11T04:21:33.973Z,0
2019-03-11T04:22:44.090Z,0
2019-03-11T04:23:54.222Z,0
2019-03-11T04:25:04.342Z,0
2019-03-11T04:26:14.456Z,0
2019-03-11T04:27:24.559Z,0
2019-03-11T04:28:34.744Z,0
2019-03-11T04:29:44.650Z,0
2019-03-11T04:30:54.749Z,0
2019-03-11T04:32:04.945Z,0
2019-03-11T04:33:15.052Z,0
2019-03-11T04:34:24.676Z,0
2019-03-11T04:35:34.779Z,0
2019-03-11T04:36:44.897Z,0
2019-03-11T04:37:54.743Z,0
2019-03-11T04:39:04.849Z,0
2019-03-11T04:40:14.951Z,0
2019-03-11T04:41:25.050Z,0
2019-03-11T04:42:35.154Z,0
2019-03-11T04:43:45.258Z,0
2019-03-11T04:44:55.361Z,0
2019-03-11T04:46:05.486Z,0
2019-03-11T04:47:15.568Z,0
2019-03-11T04:48:25.669Z,0
2019-03-11T04:49:35.781Z,0
2019-03-11T04:50:45.622Z,0
2019-03-11T04:51:55.718Z,0
2019-03-11T04:53:05.820Z,0
2019-03-11T04:54:15.931Z,0
2019-03-11T04:55:26.099Z,0
2019-03-11T04:56:36.201Z,0
2019-03-11T04:57:45.932Z,0
2019-03-11T04:58:56.041Z,0
2019-03-11T05:00:06.132Z,0
2019-03-11T05:01:16.238Z,0
2019-03-11T05:02:26.450Z,0
2019-03-11T05:03:36.559Z,0
2019-03-11T05:04:46.674Z,0
2019-03-11T05:05:56.520Z,0
2019-03-11T05:07:06.609Z,0
2019-03-11T05:08:16.720Z,0
2019-03-11T05:09:26.898Z,0
2019-03-11T05:10:37.022Z,0
2019-03-11T05:11:46.866Z,4
2019-03-11T05:12:56.989Z,4
2019-03-11T05:14:07.111Z,0
2019-03-11T05:15:17.254Z,4
2019-03-11T05:16:27.007Z,4
2019-03-11T05:17:37.160Z,4
2019-03-11T05:18:47.357Z,4
2019-03-11T05:19:57.471Z,4
2019-03-11T05:21:07.568Z,4
2019-03-11T05:22:17.668Z,4
2019-03-11T05:23:27.768Z,8
2019-03-11T05:24:37.909Z,8
2019-03-11T05:25:48.168Z,8
2019-03-11T05:26:58.262Z,12
2019-03-11T05:28:08.395Z,16
2019-03-11T05:29:18.487Z,16
2019-03-11T05:30:28.592Z,20
2019-03-11T05:31:38.705Z,28
2019-03-11T05:32:48.820Z,36
2019-03-11T05:33:58.947Z,40
2019-03-11T05:35:09.164Z,48
2019-03-11T05:36:19.263Z,56
2019-03-11T05:37:29.365Z,56
2019-03-11T05:38:39.535Z,52
2019-03-11T05:39:49.659Z,52
2019-03-11T05:40:59.763Z,56
2019-03-11T05:42:09.884Z,72
2019-03-11T05:43:19.998Z,92
2019-03-11T05:44:29.859Z,112
2019-03-11T05:45:39.970Z,128
2019-03-11T05:46:50.078Z,144
2019-03-11T05:48:00.209Z,168
2019-03-11T05:49:10.309Z,212
2019-03-11T05:50:20.172Z,264
2019-03-11T05:51:38.580Z,320
2019-03-11T05:52:48.688Z,384
2019-03-11T05:53:58.610Z,456
2019-03-11T05:55:08.467Z,520
2019-03-11T05:56:18.563Z,552
2019-03-11T05:57:28.675Z,544
2019-03-11T05:58:38.818Z,512
2019-03-11T05:59:48.911Z,484
2019-03-11T06:00:59.012Z,468
2019-03-11T06:02:09.120Z,456
2019-03-11T06:03:19.230Z,456
2019-03-11T06:04:29.327Z,460
2019-03-11T06:05:39.462Z,472
2019-03-11T06:06:49.578Z,480
2019-03-11T06:07:59.688Z,492
2019-03-11T06:09:09.902Z,512
2019-03-11T06:10:20.006Z,540
2019-03-11T06:11:30.134Z,572
2019-03-11T06:12:40.243Z,604
2019-03-11T06:13:50.354Z,640
2019-03-11T06:15:00.457Z,676
2019-03-11T06:16:10.628Z,712
2019-03-11T06:17:20.726Z,728
2019-03-11T06:18:30.875Z,736
2019-03-11T06:19:40.977Z,748
2019-03-11T06:20:51.085Z,772
2019-03-11T06:22:01.193Z,788
2019-03-11T06:23:11.310Z,804
2019-03-11T06:24:21.409Z,824
2019-03-11T06:25:31.579Z,852
2019-03-11T06:26:41.705Z,892
2019-03-11T06:27:51.908Z,944
2019-03-11T06:29:02.008Z,1020
2019-03-11T06:30:13.180Z,1128
2019-03-11T06:31:23.284Z,1260
2019-03-11T06:32:33.394Z,1408
2019-03-11T06:33:43.241Z,1552
2019-03-11T06:34:53.366Z,1696
2019-03-11T06:36:03.477Z,1780
2019-03-11T06:37:13.569Z,1788
2019-03-11T06:38:23.666Z,1748
2019-03-11T06:39:33.783Z,1720
2019-03-11T06:40:45.791Z,1748
2019-03-11T06:41:55.952Z,1824
2019-03-11T06:43:06.047Z,1920
2019-03-11T06:44:16.158Z,2032
2019-03-11T06:45:26.273Z,2168
2019-03-11T06:46:36.369Z,2312
2019-03-11T06:47:46.474Z,2460
2019-03-11T06:48:56.313Z,2636
2019-03-11T06:50:06.428Z,2852
2019-03-11T06:51:16.601Z,2992
2019-03-11T06:52:26.826Z,3124
2019-03-11T06:53:36.946Z,3240
2019-03-11T06:54:47.035Z,3340
2019-03-11T06:55:56.890Z,3440
2019-03-11T06:57:06.998Z,3580
2019-03-11T06:58:17.107Z,3732
2019-03-11T06:59:27.232Z,3928
2019-03-11T07:00:37.325Z,4128
2019-03-11T07:01:47.421Z,4268
2019-03-11T07:02:57.546Z,4104
2019-03-11T07:04:07.302Z,4300
2019-03-11T07:05:26.920Z,4132
2019-03-11T07:06:37.018Z,3944
2019-03-11T07:07:47.124Z,4104
2019-03-11T07:08:57.248Z,4244
2019-03-11T07:10:07.346Z,3676
2019-03-11T07:11:17.448Z,3576
2019-03-11T07:12:27.560Z,3852
2019-03-11T07:13:37.687Z,4404
2019-03-11T07:14:47.805Z,4420
2019-03-11T07:15:57.907Z,4960
2019-03-11T07:17:08.055Z,4912
2019-03-11T07:18:18.194Z,4600
2019-03-11T07:19:28.291Z,4244
2019-03-11T07:20:38.396Z,4340
2019-03-11T07:21:48.490Z,4396
2019-03-11T07:22:58.619Z,4852
2019-03-11T07:24:08.709Z,5048
2019-03-11T07:25:18.443Z,5084
2019-03-11T07:26:28.544Z,5320
2019-03-11T07:27:38.396Z,6036
2019-03-11T07:28:48.488Z,5600
2019-03-11T07:29:58.585Z,5944
2019-03-11T07:31:08.686Z,5712
2019-03-11T07:32:18.803Z,5096
2019-03-11T07:33:28.913Z,5100
2019-03-11T07:34:39.007Z,5408
2019-03-11T07:35:49.118Z,5528
2019-03-11T07:36:59.053Z,5592
2019-03-11T07:38:09.216Z,5820
2019-03-11T07:39:19.347Z,5964
2019-03-11T07:40:37.145Z,6128
2019-03-11T07:41:47.256Z,6248
2019-03-11T07:42:57.372Z,6956
2019-03-11T07:44:07.565Z,7520
2019-03-11T07:45:17.669Z,7960
2019-03-11T07:46:27.775Z,8332
2019-03-11T07:47:37.895Z,7780
2019-03-11T07:48:47.633Z,7712
2019-03-11T07:49:57.749Z,8192
2019-03-11T07:51:08.066Z,7620
2019-03-11T07:52:18.164Z,11724
2019-03-11T07:53:28.277Z,8560
2019-03-11T07:54:43.133Z,7556
2019-03-11T07:55:53.237Z,11776
2019-03-11T07:57:03.355Z,9252
2019-03-11T07:58:13.458Z,12432
2019-03-11T07:59:23.594Z,9096
2019-03-11T08:00:33.703Z,16288
2019-03-11T08:01:43.852Z,15040
2019-03-11T08:02:53.975Z,19520
2019-03-11T08:04:04.089Z,9756
2019-03-11T08:05:14.199Z,12608
2019-03-11T08:06:26.311Z,18560
2019-03-11T08:07:36.439Z,21696
2019-03-11T08:08:46.542Z,23904
2019-03-11T08:09:56.642Z,16512
2019-03-11T08:11:06.748Z,9652
2019-03-11T08:12:16.857Z,14112
2019-03-11T08:13:26.986Z,12356
2019-03-11T08:14:37.094Z,6948
2019-03-11T08:15:47.205Z,5844
2019-03-11T08:16:57.320Z,6160
2019-03-11T08:18:07.432Z,5460
2019-03-11T08:19:18.644Z,5036
2019-03-11T08:20:28.526Z,5064
2019-03-11T08:21:38.709Z,5952
2019-03-11T08:22:48.829Z,6920
2019-03-11T08:23:59.158Z,7020
2019-03-11T08:25:09.279Z,7096
2019-03-11T08:26:19.151Z,7452
2019-03-11T08:27:29.285Z,7872
2019-03-11T08:28:39.438Z,15936
2019-03-11T08:29:49.306Z,6796
2019-03-11T08:30:59.407Z,7172
2019-03-11T08:32:09.547Z,7276
2019-03-11T08:33:19.666Z,6200
2019-03-11T08:34:29.796Z,7600
2019-03-11T08:35:39.890Z,8172
2019-03-11T08:36:50.023Z,7592
2019-03-11T08:38:04.763Z,14944
2019-03-11T08:39:15.352Z,18624
2019-03-11T08:40:25.552Z,19200
2019-03-11T08:41:35.666Z,18880
2019-03-11T08:42:45.771Z,17440
2019-03-11T08:43:55.885Z,15008
2019-03-11T08:45:06.016Z,14848
2019-03-11T08:46:16.122Z,14560
2019-03-11T08:47:26.272Z,9604
2019-03-11T08:48:36.378Z,18368
2019-03-11T08:49:46.478Z,20384
2019-03-11T08:50:56.598Z,22080
2019-03-11T08:52:07.987Z,25152
2019-03-11T08:53:18.098Z,13080
2019-03-11T08:54:27.975Z,16992
2019-03-11T08:55:38.101Z,30112
2019-03-11T08:56:48.211Z,20256
2019-03-11T08:57:58.308Z,10368
2019-03-11T08:59:08.445Z,11424
2019-03-11T09:00:18.563Z,12368
2019-03-11T09:01:28.678Z,16768
2019-03-11T09:02:38.795Z,11312
2019-03-11T09:03:50.253Z,29984
2019-03-11T09:05:00.475Z,11908
2019-03-11T09:06:10.605Z,12520
2019-03-11T09:07:20.733Z,26976
2019-03-11T09:08:30.883Z,31104
2019-03-11T09:09:41.003Z,12212
2019-03-11T09:10:51.193Z,29312
2019-03-11T09:12:01.077Z,34048
2019-03-11T09:13:11.210Z,31808
2019-03-11T09:14:21.354Z,31104
2019-03-11T09:15:31.110Z,31264
2019-03-11T09:16:41.234Z,31136
2019-03-11T09:17:51.356Z,26080
2019-03-11T09:19:01.471Z,29984
2019-03-11T09:20:11.609Z,27008
2019-03-11T09:21:21.359Z,16672
2019-03-11T09:22:31.494Z,19808
2019-03-11T09:23:41.933Z,19040
2019-03-11T09:24:52.089Z,14720
2019-03-11T09:26:02.278Z,10492
2019-03-11T09:27:12.387Z,9228
2019-03-11T09:28:23.013Z,9892
2019-03-11T09:29:33.288Z,10492
2019-03-11T09:30:43.400Z,10664
2019-03-11T09:31:53.287Z,8648
2019-03-11T09:33:03.424Z,8900
2019-03-11T09:34:16.189Z,10124
2019-03-11T09:35:26.321Z,9780
2019-03-11T09:36:37.423Z,7112
2019-03-11T09:37:47.535Z,7876
2019-03-11T09:38:58.624Z,5880
2019-03-11T09:40:08.738Z,4356
2019-03-11T09:41:18.854Z,4128
2019-03-11T09:42:28.988Z,4404
2019-03-11T09:43:39.133Z,3852
2019-03-11T09:44:49.245Z,3100
2019-03-11T09:46:00.002Z,3332
2019-03-11T09:47:09.863Z,3768
2019-03-11T09:48:19.975Z,4012
2019-03-11T09:49:30.109Z,3292
2019-03-11T09:50:40.220Z,2896
2019-03-11T09:51:50.372Z,2632
2019-03-11T09:53:00.510Z,2276
2019-03-11T09:54:10.607Z,2144
2019-03-11T09:55:20.481Z,2052
2019-03-11T09:56:30.601Z,1756
2019-03-11T09:57:50.980Z,1836
2019-03-11T09:59:01.115Z,2328
2019-03-11T10:00:11.495Z,2648
2019-03-11T10:01:21.719Z,1848
2019-03-11T10:02:32.637Z,1704
2019-03-11T10:03:42.746Z,2248
2019-03-11T10:04:52.872Z,2496
2019-03-11T10:06:02.741Z,2668
2019-03-11T10:07:12.853Z,2684
2019-03-11T10:08:22.977Z,2820
2019-03-11T10:09:32.841Z,4312
2019-03-11T10:10:42.472Z,5444
2019-03-11T10:11:52.638Z,6180
2019-03-11T10:13:02.816Z,6032
2019-03-11T10:14:12.932Z,5840
2019-03-11T10:15:23.036Z,5492
2019-03-11T10:16:33.156Z,4596
2019-03-11T10:17:43.289Z,4276
2019-03-11T10:18:55.194Z,4404
2019-03-11T10:20:05.350Z,4904
2019-03-11T10:21:15.509Z,6088
2019-03-11T10:22:25.652Z,5596
2019-03-11T10:23:39.492Z,3900
2019-03-11T10:24:49.609Z,2784
2019-03-11T10:25:59.731Z,3100
2019-03-11T10:27:09.878Z,3864
2019-03-11T10:28:19.714Z,4472
2019-03-11T10:29:29.852Z,4392
2019-03-11T10:30:39.723Z,4240
2019-03-11T10:31:49.480Z,4716
2019-03-11T10:32:59.616Z,5068
2019-03-11T10:34:09.739Z,5764
2019-03-11T10:35:38.455Z,5404
2019-03-11T10:36:48.306Z,5824
2019-03-11T10:37:58.435Z,6736
2019-03-11T10:39:08.556Z,6076
2019-03-11T10:40:18.492Z,6384
2019-03-11T10:41:28.671Z,6544
2019-03-11T10:42:38.773Z,7320
2019-03-11T10:43:48.893Z,7836
2019-03-11T10:44:58.998Z,7312
2019-03-11T10:46:09.135Z,6268
2019-03-11T10:47:19.252Z,5800
2019-03-11T10:48:39.687Z,7024
2019-03-11T10:49:49.798Z,6248
2019-03-11T10:51:00.272Z,5796
2019-03-11T10:52:12.285Z,6888
2019-03-11T10:53:22.416Z,8020
2019-03-11T10:54:32.532Z,10488
2019-03-11T10:55:42.679Z,9516
2019-03-11T10:56:52.799Z,9704
2019-03-11T10:58:02.917Z,10180
2019-03-11T10:59:13.023Z,11648
2019-03-11T11:00:23.140Z,11748
2019-03-11T11:01:33.250Z,9468
2019-03-11T11:02:43.362Z,6904
2019-03-11T11:03:53.471Z,5800
2019-03-11T11:05:03.582Z,6768
2019-03-11T11:06:13.696Z,6660
2019-03-11T11:07:25.124Z,5552
2019-03-11T11:08:35.269Z,5360
2019-03-11T11:09:45.394Z,6628
2019-03-11T11:10:55.520Z,5796
2019-03-11T11:12:05.639Z,4492
2019-03-11T11:13:15.782Z,5624
2019-03-11T11:14:25.903Z,5904
2019-03-11T11:15:36.006Z,7472
2019-03-11T11:16:48.804Z,6772
2019-03-11T11:17:58.933Z,6472
2019-03-11T11:19:09.036Z,5324
2019-03-11T11:20:19.145Z,4368
2019-03-11T11:21:29.258Z,4268
2019-03-11T11:22:39.391Z,4040
2019-03-11T11:23:49.511Z,5068
2019-03-11T11:24:59.637Z,6800
2019-03-11T11:26:09.757Z,11960
2019-03-11T11:27:19.873Z,17856
2019-03-11T11:28:29.983Z,12728
2019-03-11T11:29:40.088Z,8768
2019-03-11T11:30:50.194Z,8812
2019-03-11T11:32:00.326Z,11328
2019-03-11T11:33:10.429Z,12376
2019-03-11T11:34:20.548Z,11080
2019-03-11T11:35:30.661Z,9336
2019-03-11T11:36:40.786Z,5580
2019-03-11T11:37:50.906Z,3684
2019-03-11T11:39:01.014Z,3612
2019-03-11T11:40:10.889Z,6760
2019-03-11T11:41:23.722Z,8640
2019-03-11T11:42:33.830Z,9000
2019-03-11T11:43:43.940Z,11684
2019-03-11T11:44:53.820Z,17632
2019-03-11T11:46:03.918Z,16256
2019-03-11T11:47:14.028Z,16576
2019-03-11T11:48:24.160Z,16736
2019-03-11T11:49:34.286Z,17568
2019-03-11T11:50:44.390Z,17696
2019-03-11T11:51:54.527Z,17568
2019-03-11T11:53:04.422Z,19232
2019-03-11T11:54:14.542Z,17824
2019-03-11T11:55:24.682Z,15488
2019-03-11T11:56:34.800Z,16384
2019-03-11T11:57:44.929Z,16352
2019-03-11T11:58:55.054Z,16448
2019-03-11T12:00:05.105Z,15968
2019-03-11T12:01:15.217Z,12576
2019-03-11T12:02:25.317Z,8684
2019-03-11T12:03:35.430Z,6336
2019-03-11T12:04:45.538Z,5376
2019-03-11T12:05:55.704Z,6844
2019-03-11T12:07:05.821Z,9324
2019-03-11T12:08:15.948Z,10716
2019-03-11T12:09:26.086Z,10392
2019-03-11T12:10:36.206Z,10344
2019-03-11T12:11:46.318Z,10252
2019-03-11T12:12:56.463Z,11120
2019-03-11T12:14:06.637Z,10240
2019-03-11T12:15:16.758Z,8388
2019-03-11T12:16:26.882Z,10848
2019-03-11T12:17:37.040Z,14368
2019-03-11T12:18:47.205Z,17056
2019-03-11T12:19:57.376Z,14816
2019-03-11T12:21:07.507Z,13696
2019-03-11T12:22:17.620Z,15648
2019-03-11T12:23:27.772Z,14368
2019-03-11T12:24:37.879Z,16544
2019-03-11T12:25:48.014Z,17888
2019-03-11T12:26:58.123Z,12588
2019-03-11T12:28:08.233Z,10540
2019-03-11T12:29:18.085Z,7072
2019-03-11T12:30:28.223Z,4916
2019-03-11T12:31:38.361Z,5656
2019-03-11T12:32:48.498Z,5796
2019-03-11T12:33:58.613Z,9084
2019-03-11T12:35:08.807Z,6780
2019-03-11T12:36:18.987Z,4000
2019-03-11T12:37:29.147Z,3688
2019-03-11T12:38:39.359Z,3780
2019-03-11T12:39:49.475Z,4960
2019-03-11T12:40:59.610Z,8948
2019-03-11T12:42:09.748Z,11140
2019-03-11T12:43:19.875Z,11028
2019-03-11T12:44:29.982Z,12960
2019-03-11T12:45:40.113Z,13660
2019-03-11T12:46:50.229Z,12728
2019-03-11T12:48:00.403Z,11772
2019-03-11T12:49:10.507Z,11228
2019-03-11T12:50:22.187Z,9888
2019-03-11T12:51:32.310Z,6484
2019-03-11T12:52:42.437Z,4372
2019-03-11T12:53:52.627Z,3628
2019-03-11T12:55:02.761Z,3092
2019-03-11T12:56:12.953Z,2624
2019-03-11T12:57:23.080Z,2316
2019-03-11T12:58:43.840Z,2324
2019-03-11T12:59:54.183Z,2924
2019-03-11T13:01:06.072Z,3300
2019-03-11T13:02:16.218Z,5208
2019-03-11T13:03:26.333Z,4852
2019-03-11T13:04:36.441Z,5968
2019-03-11T13:05:46.579Z,9068
2019-03-11T13:06:56.512Z,13904
2019-03-11T13:08:06.643Z,16832
2019-03-11T13:09:16.757Z,16320
2019-03-11T13:10:26.885Z,14336
2019-03-11T13:11:37.012Z,14592
2019-03-11T13:12:47.125Z,17504
2019-03-11T13:13:57.243Z,26592
2019-03-11T13:15:07.368Z,14592
2019-03-11T13:16:17.219Z,20352
2019-03-11T13:17:27.347Z,13856
2019-03-11T13:18:38.096Z,13824
2019-03-11T13:19:48.239Z,47680
2019-03-11T13:20:58.348Z,13888
2019-03-11T13:22:08.477Z,31680
2019-03-11T13:23:18.337Z,14368
2019-03-11T13:24:28.478Z,12144
2019-03-11T13:25:38.222Z,17600
2019-03-11T13:26:48.340Z,32960
2019-03-11T13:27:58.480Z,12540
2019-03-11T13:29:08.649Z,51840
2019-03-11T13:30:18.787Z,15904
2019-03-11T13:31:28.930Z,17824
2019-03-11T13:32:38.813Z,23072
2019-03-11T13:33:48.755Z,31616
2019-03-11T13:34:58.885Z,43680
2019-03-11T13:36:08.687Z,13984
2019-03-11T13:37:18.811Z,26944
2019-03-11T13:38:28.942Z,22528
2019-03-11T13:39:39.059Z,44800
2019-03-11T13:40:48.915Z,10596
2019-03-11T13:42:00.409Z,6732
2019-03-11T13:43:10.534Z,4128
2019-03-11T13:44:20.689Z,3048
2019-03-11T13:45:30.834Z,3232
2019-03-11T13:46:40.964Z,5848
2019-03-11T13:47:51.086Z,7400
2019-03-11T13:49:00.965Z,10252
2019-03-11T13:50:11.081Z,14464
2019-03-11T13:51:21.204Z,19072
2019-03-11T13:52:31.447Z,18944
2019-03-11T13:53:41.556Z,43104
2019-03-11T13:54:51.719Z,9264
2019-03-11T13:56:01.832Z,7056
2019-03-11T13:57:11.965Z,9904
2019-03-11T13:58:22.081Z,40832
2019-03-11T13:59:31.975Z,10316
2019-03-11T14:00:42.105Z,11124
2019-03-11T14:01:52.233Z,31552
2019-03-11T14:03:02.386Z,19936
2019-03-11T14:04:12.492Z,41440
2019-03-11T14:05:22.714Z,11928
2019-03-11T14:06:32.627Z,7632
2019-03-11T14:07:42.758Z,9104
2019-03-11T14:08:52.884Z,10656
2019-03-11T14:10:03.013Z,17408
2019-03-11T14:11:13.155Z,12668
2019-03-11T14:12:23.268Z,8784
2019-03-11T14:13:33.233Z,6588
2019-03-11T14:14:43.365Z,5924
2019-03-11T14:15:53.501Z,3800
2019-03-11T14:17:04.939Z,3192
2019-03-11T14:18:15.095Z,3436
2019-03-11T14:19:25.237Z,4460
2019-03-11T14:20:35.367Z,4644
2019-03-11T14:21:45.546Z,4796
2019-03-11T14:22:55.694Z,3824
2019-03-11T14:24:05.826Z,3200
2019-03-11T14:25:15.944Z,3188
2019-03-11T14:26:26.070Z,2760
2019-03-11T14:27:35.933Z,1392
2019-03-11T14:28:46.087Z,1064
2019-03-11T14:29:56.204Z,1280
2019-03-11T14:31:06.364Z,1660
2019-03-11T14:32:20.525Z,3608
2019-03-11T14:33:30.995Z,5268
2019-03-11T14:34:41.131Z,7504
2019-03-11T14:35:52.293Z,8128
2019-03-11T14:37:02.532Z,7668
2019-03-11T14:38:12.674Z,7192
2019-03-11T14:39:22.544Z,7432
2019-03-11T14:40:32.814Z,8164
2019-03-11T14:41:42.959Z,8580
2019-03-11T14:42:52.839Z,7936
2019-03-11T14:44:02.982Z,7836
2019-03-11T14:45:15.764Z,7640
2019-03-11T14:46:25.875Z,7356
2019-03-11T14:47:36.033Z,7032
2019-03-11T14:48:46.178Z,6664
2019-03-11T14:49:56.329Z,6316
2019-03-11T14:51:06.492Z,6268
2019-03-11T14:52:16.660Z,6260
2019-03-11T14:53:26.776Z,6188
2019-03-11T14:54:36.890Z,5760
2019-03-11T14:55:47.364Z,4528
2019-03-11T14:56:57.538Z,3196
2019-03-11T14:58:08.508Z,2992
2019-03-11T14:59:18.639Z,3060
2019-03-11T15:00:28.771Z,2700
2019-03-11T15:01:38.901Z,2144
2019-03-11T15:02:49.083Z,2044
2019-03-11T15:03:59.215Z,1800
2019-03-11T15:05:09.383Z,1676
2019-03-11T15:06:19.490Z,1856
2019-03-11T15:07:29.599Z,2232
2019-03-11T15:08:39.737Z,2332
2019-03-11T15:09:58.526Z,2712
2019-03-11T15:11:08.662Z,3044
2019-03-11T15:12:18.802Z,2908
2019-03-11T15:13:28.922Z,2412
2019-03-11T15:14:40.966Z,2112
2019-03-11T15:15:51.102Z,1080
2019-03-11T15:17:01.265Z,888
2019-03-11T15:18:11.394Z,864
2019-03-11T15:19:23.960Z,1592
2019-03-11T15:20:34.251Z,1808
2019-03-11T15:21:44.370Z,2444
2019-03-11T15:22:54.592Z,2360
2019-03-11T15:24:14.006Z,2416
2019-03-11T15:25:24.176Z,2684
2019-03-11T15:26:34.317Z,2860
2019-03-11T15:27:44.465Z,2984
2019-03-11T15:28:54.621Z,2804
2019-03-11T15:30:04.494Z,2444
2019-03-11T15:31:18.721Z,2188
2019-03-11T15:32:28.913Z,2044
2019-03-11T15:33:39.087Z,1868
2019-03-11T15:34:49.200Z,1896
2019-03-11T15:35:59.371Z,2080
2019-03-11T15:37:10.304Z,2016
2019-03-11T15:38:20.439Z,1680
2019-03-11T15:39:31.382Z,1524
2019-03-11T15:40:41.511Z,1468
2019-03-11T15:41:51.662Z,1300
2019-03-11T15:43:01.838Z,1188
2019-03-11T15:44:11.992Z,1088
2019-03-11T15:45:22.178Z,1116
2019-03-11T15:46:41.615Z,1396
2019-03-11T15:47:51.751Z,1524
2019-03-11T15:49:01.890Z,1420
2019-03-11T15:50:13.900Z,1232
2019-03-11T15:51:24.041Z,1072
2019-03-11T15:52:44.423Z,1068
2019-03-11T15:53:54.597Z,856
2019-03-11T15:55:04.733Z,796
2019-03-11T15:56:14.885Z,900
2019-03-11T15:57:25.042Z,992
2019-03-11T15:58:34.943Z,1088
2019-03-11T15:59:45.141Z,1028
2019-03-11T16:00:55.266Z,1032
2019-03-11T16:02:05.412Z,1004
2019-03-11T16:03:15.544Z,888
2019-03-11T16:04:25.679Z,788
2019-03-11T16:05:35.919Z,896